UAE83M OMDB-KLAX
Flight info
| Callsign | UAE83M |
|---|---|
| Flight time | N/A |
| Altitude | 31000 |
| Route | ANVIX L223 TARDI N629 IVAKU G216 ALPOR DCT PI B505 PG G325 ZB/N0502F330 G325 PS P500 ATROL/N0497F320 P500 GERRY/N0499F330 P500 MOTMO/N0495F320 P500 FIRUZ/K0917F320 DCT POMIR L139 KIBFU/K0917F340 L139 MAGOL P178 TIMKA DCT ARK DCT BEBLU N167 TINRI/K0904F350 L165 BELEG/K0896F340 L165 BURIB/K0915F360 L165 ABERI/N0491F360 DCT 85N124W/N0502F380 80N123W/N0492F370 75N122W 70N122W/N0496F390 65N123W DCT YVR J5 POWEL DCT LKV DCT BAARB J5 PINNI DCT EHF J65 LANDO |
| Aircraft | A388/J-SADE2E3FGHIJ3J4J5M1RWXY/LB1D1 |
Departure
| Time | 2026-05-06 04:00 |
|---|---|
| Airport | Dubai International Airport (OMDB) |
Arrival
| Time | N/A |
|---|---|
| Airport | Los Angeles International Airport (KLAX) |
| Time | Latitude | Longitude | Altitude | Speed | Heading |
|---|---|---|---|---|---|
| 2026-05-06 02:39 | 25.24921 | 55.36218 | 27 ft | 0 kts | 211° |
| 2026-05-06 03:41 | 25.24926 | 55.36221 | 26 ft | 1 kts | 211° |
| 2026-05-06 03:41 | 25.24928 | 55.36223 | 26 ft | 1 kts | 211° |
| 2026-05-06 03:42 | 25.24939 | 55.36230 | 26 ft | 2 kts | 211° |
| 2026-05-06 03:42 | 25.24954 | 55.36240 | 25 ft | 3 kts | 211° |
| 2026-05-06 03:42 | 25.24971 | 55.36251 | 24 ft | 3 kts | 206° |
| 2026-05-06 03:42 | 25.24971 | 55.36250 | 24 ft | 1 kts | 206° |
| 2026-05-06 03:43 | 25.24990 | 55.36258 | 24 ft | 3 kts | 193° |
| 2026-05-06 03:43 | 25.25012 | 55.36258 | 26 ft | 3 kts | 170° |
| 2026-05-06 03:43 | 25.25027 | 55.36241 | 25 ft | 3 kts | 122° |
| 2026-05-06 03:43 | 25.25032 | 55.36231 | 25 ft | 0 kts | 120° |
| 2026-05-06 03:49 | 25.25031 | 55.36233 | 25 ft | 1 kts | 120° |
| 2026-05-06 03:49 | 25.25020 | 55.36254 | 25 ft | 5 kts | 121° |
| 2026-05-06 03:49 | 25.24997 | 55.36297 | 24 ft | 7 kts | 114° |
| 2026-05-06 03:50 | 25.24985 | 55.36353 | 27 ft | 8 kts | 95° |
| 2026-05-06 03:50 | 25.24983 | 55.36414 | 27 ft | 8 kts | 91° |
| 2026-05-06 03:50 | 25.24980 | 55.36481 | 27 ft | 9 kts | 99° |
| 2026-05-06 03:50 | 25.24959 | 55.36546 | 27 ft | 9 kts | 117° |
| 2026-05-06 03:51 | 25.24926 | 55.36608 | 27 ft | 9 kts | 121° |
| 2026-05-06 03:51 | 25.24894 | 55.36672 | 27 ft | 10 kts | 112° |
| 2026-05-06 03:51 | 25.24874 | 55.36740 | 27 ft | 9 kts | 104° |
| 2026-05-06 03:51 | 25.24862 | 55.36800 | 28 ft | 7 kts | 100° |
| 2026-05-06 03:52 | 25.24851 | 55.36854 | 28 ft | 8 kts | 111° |
| 2026-05-06 03:52 | 25.24822 | 55.36920 | 29 ft | 9 kts | 122° |
| 2026-05-06 03:52 | 25.24799 | 55.36960 | 30 ft | 9 kts | 122° |
| 2026-05-06 03:52 | 25.24758 | 55.37033 | 31 ft | 8 kts | 122° |
| 2026-05-06 03:53 | 25.24730 | 55.37082 | 32 ft | 7 kts | 122° |
| 2026-05-06 03:53 | 25.24705 | 55.37127 | 33 ft | 6 kts | 122° |
| 2026-05-06 03:53 | 25.24682 | 55.37167 | 34 ft | 6 kts | 121° |
| 2026-05-06 03:53 | 25.24659 | 55.37208 | 35 ft | 9 kts | 121° |
| 2026-05-06 03:54 | 25.24627 | 55.37268 | 36 ft | 10 kts | 121° |
| 2026-05-06 03:54 | 25.24589 | 55.37337 | 38 ft | 12 kts | 122° |
| 2026-05-06 03:54 | 25.24549 | 55.37409 | 40 ft | 10 kts | 122° |
| 2026-05-06 03:54 | 25.24515 | 55.37470 | 41 ft | 9 kts | 122° |
| 2026-05-06 03:55 | 25.24484 | 55.37524 | 42 ft | 9 kts | 121° |
| 2026-05-06 03:55 | 25.24451 | 55.37584 | 44 ft | 9 kts | 121° |
| 2026-05-06 03:55 | 25.24419 | 55.37641 | 45 ft | 8 kts | 121° |
| 2026-05-06 03:55 | 25.24390 | 55.37693 | 46 ft | 7 kts | 121° |
| 2026-05-06 03:56 | 25.24364 | 55.37741 | 47 ft | 7 kts | 121° |
| 2026-05-06 03:56 | 25.24337 | 55.37791 | 48 ft | 9 kts | 121° |
| 2026-05-06 03:56 | 25.24303 | 55.37853 | 48 ft | 9 kts | 122° |
| 2026-05-06 03:56 | 25.24264 | 55.37922 | 46 ft | 11 kts | 122° |
| 2026-05-06 03:57 | 25.24227 | 55.37989 | 48 ft | 10 kts | 122° |
| 2026-05-06 03:57 | 25.24219 | 55.38044 | 47 ft | 5 kts | 55° |
| 2026-05-06 03:57 | 25.24250 | 55.38077 | 47 ft | 8 kts | 38° |
| 2026-05-06 03:57 | 25.24307 | 55.38117 | 48 ft | 11 kts | 31° |
| 2026-05-06 03:58 | 25.24377 | 55.38164 | 47 ft | 13 kts | 31° |
| 2026-05-06 03:58 | 25.24456 | 55.38217 | 51 ft | 14 kts | 31° |
| 2026-05-06 03:58 | 25.24540 | 55.38273 | 50 ft | 14 kts | 31° |
| 2026-05-06 03:58 | 25.24624 | 55.38324 | 52 ft | 11 kts | 2° |
| 2026-05-06 03:59 | 25.24665 | 55.38293 | 52 ft | 4 kts | 299° |
| 2026-05-06 03:59 | 25.24700 | 55.38229 | 50 ft | 26 kts | 301° |
| 2026-05-06 03:59 | 25.24910 | 55.37850 | 43 ft | 92 kts | 301° |
| 2026-05-06 03:59 | 25.25347 | 55.37061 | 27 ft | 146 kts | 301° |
| 2026-05-06 04:00 | 25.25946 | 55.35974 | 31 ft | 181 kts | 301° |
| 2026-05-06 04:00 | 25.26624 | 55.34750 | 305 ft | 187 kts | 300° |
| 2026-05-06 04:00 | 25.27310 | 55.33525 | 677 ft | 191 kts | 302° |
| 2026-05-06 04:00 | 25.28033 | 55.32233 | 885 ft | 202 kts | 301° |
| 2026-05-06 04:01 | 25.28738 | 55.30896 | 1346 ft | 199 kts | 297° |
| 2026-05-06 04:01 | 25.29181 | 55.29466 | 1801 ft | 199 kts | 274° |
| 2026-05-06 04:01 | 25.28979 | 55.27893 | 1944 ft | 219 kts | 244° |
| 2026-05-06 04:01 | 25.28304 | 55.26329 | 2220 ft | 238 kts | 242° |
| 2026-05-06 04:02 | 25.27542 | 55.24625 | 2469 ft | 261 kts | 243° |
| 2026-05-06 04:02 | 25.26732 | 55.22788 | 2999 ft | 268 kts | 244° |
| 2026-05-06 04:02 | 25.25925 | 55.20922 | 3595 ft | 271 kts | 244° |
| 2026-05-06 04:02 | 25.25120 | 55.19050 | 4213 ft | 273 kts | 242° |
| 2026-05-06 04:03 | 25.23913 | 55.17441 | 4751 ft | 275 kts | 214° |
| 2026-05-06 04:03 | 25.22172 | 55.16604 | 5318 ft | 275 kts | 187° |
| 2026-05-06 04:03 | 25.20290 | 55.16647 | 6001 ft | 271 kts | 166° |
| 2026-05-06 04:03 | 25.18584 | 55.17487 | 6553 ft | 271 kts | 138° |
| 2026-05-06 04:04 | 25.17411 | 55.19086 | 7055 ft | 270 kts | 114° |
| 2026-05-06 04:04 | 25.16596 | 55.20981 | 7339 ft | 283 kts | 115° |
| 2026-05-06 04:04 | 25.15694 | 55.22952 | 7680 ft | 290 kts | 116° |
| 2026-05-06 04:04 | 25.14752 | 55.24933 | 8196 ft | 292 kts | 117° |
| 2026-05-06 04:05 | 25.13794 | 55.26922 | 8689 ft | 295 kts | 117° |
| 2026-05-06 04:05 | 25.12839 | 55.28897 | 9181 ft | 298 kts | 117° |
| 2026-05-06 04:05 | 25.11858 | 55.30929 | 9684 ft | 300 kts | 117° |
| 2026-05-06 04:05 | 25.10873 | 55.32973 | 10105 ft | 303 kts | 117° |
| 2026-05-06 04:06 | 25.09976 | 55.35088 | 10595 ft | 304 kts | 114° |
| 2026-05-06 04:06 | 25.09106 | 55.37221 | 11064 ft | 306 kts | 114° |
| 2026-05-06 04:06 | 25.08223 | 55.39369 | 11538 ft | 309 kts | 114° |
| 2026-05-06 04:06 | 25.07332 | 55.41531 | 11964 ft | 312 kts | 114° |
| 2026-05-06 04:07 | 25.06437 | 55.43752 | 12192 ft | 323 kts | 112° |
| 2026-05-06 04:07 | 25.05555 | 55.46054 | 12320 ft | 336 kts | 112° |
| 2026-05-06 04:07 | 25.04633 | 55.48485 | 12452 ft | 349 kts | 112° |
| 2026-05-06 04:07 | 25.03675 | 55.51001 | 12599 ft | 361 kts | 112° |
| 2026-05-06 04:08 | 25.02691 | 55.53569 | 13031 ft | 363 kts | 112° |
| 2026-05-06 04:08 | 25.01626 | 55.56100 | 13507 ft | 366 kts | 119° |
| 2026-05-06 04:08 | 25.00311 | 55.58515 | 13902 ft | 368 kts | 121° |
| 2026-05-06 04:08 | 24.98986 | 55.60941 | 14298 ft | 370 kts | 120° |
| 2026-05-06 04:09 | 24.97660 | 55.63392 | 14689 ft | 373 kts | 120° |
| 2026-05-06 04:09 | 24.96346 | 55.65827 | 15075 ft | 375 kts | 120° |
| 2026-05-06 04:09 | 24.95010 | 55.68303 | 15471 ft | 377 kts | 120° |
| 2026-05-06 04:09 | 24.93604 | 55.70752 | 15846 ft | 380 kts | 126° |
| 2026-05-06 04:10 | 24.92028 | 55.73099 | 16216 ft | 382 kts | 126° |
| 2026-05-06 04:10 | 24.90451 | 55.75468 | 16611 ft | 384 kts | 126° |
| 2026-05-06 04:10 | 24.88869 | 55.77856 | 16985 ft | 386 kts | 126° |
| 2026-05-06 04:10 | 24.87275 | 55.80263 | 17308 ft | 390 kts | 126° |
| 2026-05-06 04:11 | 24.85692 | 55.82652 | 17683 ft | 392 kts | 126° |
| 2026-05-06 04:11 | 24.84080 | 55.85083 | 18112 ft | 393 kts | 125° |
| 2026-05-06 04:11 | 24.82454 | 55.87512 | 18420 ft | 396 kts | 126° |
| 2026-05-06 04:11 | 24.80801 | 55.89948 | 18728 ft | 398 kts | 126° |
| 2026-05-06 04:12 | 24.79135 | 55.92397 | 19050 ft | 401 kts | 127° |
| 2026-05-06 04:12 | 24.77302 | 55.94727 | 19362 ft | 404 kts | 135° |
| 2026-05-06 04:12 | 24.75237 | 55.96835 | 19686 ft | 406 kts | 137° |
| 2026-05-06 04:12 | 24.73155 | 55.98956 | 20020 ft | 409 kts | 137° |
| 2026-05-06 04:13 | 24.71068 | 56.01102 | 20350 ft | 411 kts | 137° |
| 2026-05-06 04:13 | 24.68972 | 56.03261 | 20687 ft | 414 kts | 137° |
| 2026-05-06 04:13 | 24.66865 | 56.05432 | 20981 ft | 417 kts | 137° |
| 2026-05-06 04:13 | 24.64775 | 56.07587 | 21291 ft | 419 kts | 137° |
| 2026-05-06 04:14 | 24.62641 | 56.09786 | 21578 ft | 421 kts | 137° |
| 2026-05-06 04:14 | 24.60493 | 56.11997 | 21875 ft | 423 kts | 137° |
| 2026-05-06 04:14 | 24.58333 | 56.14217 | 22161 ft | 426 kts | 137° |
| 2026-05-06 04:14 | 24.56251 | 56.16540 | 22426 ft | 428 kts | 130° |
| 2026-05-06 04:15 | 24.54319 | 56.19039 | 22723 ft | 430 kts | 131° |
| 2026-05-06 04:15 | 24.52359 | 56.21549 | 22976 ft | 433 kts | 131° |
| 2026-05-06 04:15 | 24.50385 | 56.24063 | 23247 ft | 435 kts | 131° |
| 2026-05-06 04:15 | 24.48405 | 56.26581 | 23496 ft | 437 kts | 131° |
| 2026-05-06 04:16 | 24.46429 | 56.29094 | 23728 ft | 439 kts | 131° |
| 2026-05-06 04:16 | 24.44431 | 56.31633 | 23942 ft | 441 kts | 131° |
| 2026-05-06 04:16 | 24.42413 | 56.34198 | 24105 ft | 444 kts | 131° |
| 2026-05-06 04:16 | 24.40388 | 56.36770 | 24348 ft | 445 kts | 131° |
| 2026-05-06 04:17 | 24.38361 | 56.39345 | 24572 ft | 447 kts | 131° |
| 2026-05-06 04:17 | 24.36324 | 56.41929 | 24784 ft | 448 kts | 131° |
| 2026-05-06 04:17 | 24.34281 | 56.44521 | 24996 ft | 450 kts | 131° |
| 2026-05-06 04:17 | 24.32228 | 56.47123 | 25184 ft | 452 kts | 131° |
| 2026-05-06 04:18 | 24.30170 | 56.49736 | 25365 ft | 453 kts | 130° |
| 2026-05-06 04:18 | 24.28274 | 56.52500 | 25564 ft | 455 kts | 126° |
| 2026-05-06 04:18 | 24.26420 | 56.55320 | 25730 ft | 457 kts | 127° |
| 2026-05-06 04:18 | 24.24552 | 56.58141 | 25921 ft | 458 kts | 127° |
| 2026-05-06 04:19 | 24.22669 | 56.60977 | 26080 ft | 460 kts | 127° |
| 2026-05-06 04:19 | 24.20789 | 56.63805 | 26302 ft | 462 kts | 127° |
| 2026-05-06 04:19 | 24.18895 | 56.66653 | 26493 ft | 463 kts | 127° |
| 2026-05-06 04:19 | 24.16995 | 56.69509 | 26689 ft | 465 kts | 127° |
| 2026-05-06 04:20 | 24.15080 | 56.72387 | 26896 ft | 466 kts | 127° |
| 2026-05-06 04:20 | 24.13172 | 56.75252 | 27096 ft | 468 kts | 127° |
| 2026-05-06 04:20 | 24.11265 | 56.78115 | 27305 ft | 470 kts | 127° |
| 2026-05-06 04:20 | 24.09322 | 56.81030 | 27523 ft | 471 kts | 127° |
| 2026-05-06 04:21 | 24.07387 | 56.83931 | 27734 ft | 473 kts | 127° |
| 2026-05-06 04:21 | 24.05447 | 56.86838 | 27995 ft | 474 kts | 127° |
| 2026-05-06 04:21 | 24.03512 | 56.89735 | 28218 ft | 476 kts | 127° |
| 2026-05-06 04:21 | 24.01554 | 56.92664 | 28429 ft | 478 kts | 127° |
| 2026-05-06 04:22 | 23.99601 | 56.95581 | 28656 ft | 480 kts | 127° |
| 2026-05-06 04:22 | 23.97605 | 56.98562 | 28878 ft | 481 kts | 127° |
| 2026-05-06 04:22 | 23.95621 | 57.01521 | 29122 ft | 483 kts | 127° |
| 2026-05-06 04:23 | 23.91627 | 57.07477 | 29583 ft | 487 kts | 127° |
| 2026-05-06 04:23 | 23.89617 | 57.10470 | 29825 ft | 489 kts | 128° |
| 2026-05-06 04:23 | 23.87626 | 57.13436 | 30026 ft | 492 kts | 127° |
| 2026-05-06 04:23 | 23.85599 | 57.16453 | 30247 ft | 493 kts | 127° |
| 2026-05-06 04:24 | 23.84227 | 57.18495 | 30419 ft | 493 kts | 128° |
| 2026-05-06 04:24 | 23.81529 | 57.22508 | 30676 ft | 496 kts | 128° |
| 2026-05-06 04:24 | 23.79480 | 57.25553 | 30875 ft | 499 kts | 128° |
| 2026-05-06 04:25 | 23.75309 | 57.31743 | 30873 ft | 513 kts | 128° |
| 2026-05-06 04:25 | 23.71006 | 57.38103 | 30875 ft | 527 kts | 129° |
| 2026-05-06 04:26 | 23.66377 | 57.44457 | 30878 ft | 541 kts | 130° |
| 2026-05-06 04:26 | 23.61599 | 57.50950 | 30879 ft | 555 kts | 130° |
| 2026-05-06 04:27 | 23.56756 | 57.57583 | 30898 ft | 569 kts | 130° |
| 2026-05-06 04:27 | 23.52190 | 57.64727 | 30889 ft | 583 kts | 117° |
| 2026-05-06 04:28 | 23.49766 | 57.73213 | 30899 ft | 594 kts | 97° |
| 2026-05-06 04:28 | 23.49318 | 57.77638 | 31810 ft | 576 kts | 96° |
| 2026-05-06 04:28 | 23.48903 | 57.81921 | 32867 ft | 562 kts | 96° |
| 2026-05-06 04:28 | 23.48501 | 57.86065 | 34144 ft | 535 kts | 96° |
| 2026-05-06 04:29 | 23.48130 | 57.89918 | 36132 ft | 483 kts | 96° |
| 2026-05-06 04:29 | 23.47806 | 57.93296 | 38794 ft | 411 kts | 96° |
| 2026-05-06 04:29 | 23.47541 | 57.96116 | 40756 ft | 360 kts | 97° |
| 2026-05-06 04:30 | 23.47018 | 58.01699 | 39121 ft | 408 kts | 96° |
| 2026-05-06 04:30 | 23.46712 | 58.04944 | 37683 ft | 448 kts | 96° |
| 2026-05-06 04:30 | 23.46391 | 58.08341 | 37656 ft | 446 kts | 96° |
| 2026-05-06 04:30 | 23.46083 | 58.11620 | 38534 ft | 422 kts | 96° |
| 2026-05-06 04:31 | 23.45792 | 58.14729 | 39127 ft | 403 kts | 96° |
| 2026-05-06 04:31 | 23.45322 | 58.19772 | 38883 ft | 409 kts | 96° |
| 2026-05-06 04:31 | 23.45029 | 58.22896 | 38396 ft | 422 kts | 96° |
| 2026-05-06 04:32 | 23.44729 | 58.26104 | 38134 ft | 427 kts | 96° |
| 2026-05-06 04:32 | 23.44332 | 58.30339 | 38341 ft | 420 kts | 96° |
| 2026-05-06 04:32 | 23.44038 | 58.33483 | 38539 ft | 413 kts | 96° |
| 2026-05-06 04:33 | 23.43553 | 58.38681 | 38471 ft | 413 kts | 96° |
| 2026-05-06 04:33 | 23.43265 | 58.41774 | 38293 ft | 417 kts | 96° |
| 2026-05-06 04:33 | 23.42972 | 58.44921 | 38184 ft | 418 kts | 96° |
| 2026-05-06 04:34 | 23.42388 | 58.51201 | 38198 ft | 415 kts | 96° |
| 2026-05-06 04:34 | 23.41809 | 58.57451 | 38120 ft | 415 kts | 96° |
| 2026-05-06 04:35 | 23.41229 | 58.63718 | 37999 ft | 415 kts | 96° |
| 2026-05-06 04:35 | 23.40652 | 58.69965 | 37939 ft | 414 kts | 96° |
| 2026-05-06 04:36 | 23.40082 | 58.76162 | 38020 ft | 409 kts | 96° |
| 2026-05-06 04:36 | 23.39515 | 58.82335 | 37883 ft | 410 kts | 96° |
| 2026-05-06 04:37 | 23.38950 | 58.88487 | 37772 ft | 411 kts | 96° |
| 2026-05-06 04:37 | 23.38378 | 58.94708 | 37748 ft | 409 kts | 96° |
| 2026-05-06 04:38 | 23.37814 | 59.00853 | 37658 ft | 409 kts | 96° |
| 2026-05-06 04:38 | 23.37249 | 59.07003 | 37534 ft | 411 kts | 96° |
| 2026-05-06 04:39 | 23.36679 | 59.13201 | 37445 ft | 411 kts | 96° |
| 2026-05-06 04:39 | 23.36113 | 59.19351 | 37416 ft | 409 kts | 96° |
| 2026-05-06 04:40 | 23.35546 | 59.25528 | 37345 ft | 409 kts | 96° |
| 2026-05-06 04:40 | 23.34979 | 59.31691 | 37281 ft | 409 kts | 96° |
| 2026-05-06 04:41 | 23.34413 | 59.37855 | 37217 ft | 409 kts | 96° |
| 2026-05-06 04:41 | 23.33849 | 59.43989 | 37161 ft | 409 kts | 96° |
| 2026-05-06 04:42 | 23.33284 | 59.50144 | 37127 ft | 409 kts | 96° |
| 2026-05-06 04:42 | 23.32718 | 59.56297 | 37069 ft | 408 kts | 96° |
| 2026-05-06 04:43 | 23.32156 | 59.62427 | 37100 ft | 406 kts | 96° |
| 2026-05-06 04:43 | 23.31595 | 59.68540 | 37064 ft | 405 kts | 96° |
| 2026-05-06 04:44 | 23.31034 | 59.74654 | 36972 ft | 406 kts | 96° |
| 2026-05-06 04:44 | 23.30478 | 59.80721 | 36943 ft | 405 kts | 96° |
| 2026-05-06 04:45 | 23.29919 | 59.86822 | 36914 ft | 405 kts | 96° |
| 2026-05-06 04:45 | 23.29359 | 59.92924 | 36854 ft | 405 kts | 96° |
| 2026-05-06 04:46 | 23.28800 | 59.99029 | 36806 ft | 405 kts | 96° |
| 2026-05-06 04:46 | 23.28245 | 60.05077 | 36790 ft | 404 kts | 96° |
| 2026-05-06 04:47 | 23.27687 | 60.11169 | 36747 ft | 404 kts | 96° |
| 2026-05-06 04:47 | 23.27129 | 60.17257 | 36706 ft | 404 kts | 96° |
| 2026-05-06 04:48 | 23.26571 | 60.23342 | 36673 ft | 404 kts | 96° |
| 2026-05-06 04:48 | 23.26013 | 60.29426 | 36649 ft | 404 kts | 96° |
| 2026-05-06 04:49 | 23.25461 | 60.35455 | 36612 ft | 404 kts | 96° |
| 2026-05-06 04:49 | 23.24900 | 60.41572 | 36583 ft | 404 kts | 96° |
| 2026-05-06 04:50 | 23.24348 | 60.47601 | 36554 ft | 403 kts | 96° |
| 2026-05-06 04:50 | 23.23792 | 60.53676 | 36536 ft | 403 kts | 96° |
| 2026-05-06 04:51 | 23.23239 | 60.59717 | 36557 ft | 401 kts | 96° |
| 2026-05-06 04:51 | 23.22685 | 60.65766 | 36505 ft | 402 kts | 96° |
| 2026-05-06 04:52 | 23.22135 | 60.71779 | 36478 ft | 401 kts | 96° |
| 2026-05-06 04:52 | 23.21582 | 60.77821 | 36468 ft | 401 kts | 96° |
| 2026-05-06 04:53 | 23.21030 | 60.83864 | 36420 ft | 402 kts | 96° |
| 2026-05-06 04:53 | 23.20478 | 60.89899 | 36421 ft | 401 kts | 96° |
| 2026-05-06 04:54 | 23.19929 | 60.95899 | 36395 ft | 401 kts | 96° |
| 2026-05-06 04:54 | 23.19379 | 61.01922 | 36373 ft | 401 kts | 96° |
| 2026-05-06 04:55 | 23.18827 | 61.07969 | 36329 ft | 401 kts | 96° |
| 2026-05-06 04:55 | 23.18276 | 61.14006 | 36307 ft | 401 kts | 96° |
| 2026-05-06 04:56 | 23.17729 | 61.20023 | 36306 ft | 401 kts | 96° |
| 2026-05-06 04:56 | 23.17179 | 61.26068 | 36297 ft | 400 kts | 96° |
| 2026-05-06 04:57 | 23.16635 | 61.32069 | 36274 ft | 400 kts | 96° |
| 2026-05-06 04:57 | 23.16089 | 61.38101 | 36241 ft | 401 kts | 95° |
| 2026-05-06 04:58 | 23.15545 | 61.44107 | 36231 ft | 401 kts | 95° |
| 2026-05-06 04:58 | 23.14999 | 61.50149 | 36229 ft | 399 kts | 96° |
| 2026-05-06 04:59 | 23.14458 | 61.56129 | 36263 ft | 398 kts | 96° |
| 2026-05-06 04:59 | 23.13918 | 61.62112 | 36213 ft | 399 kts | 96° |
| 2026-05-06 05:00 | 23.13378 | 61.68082 | 36206 ft | 399 kts | 96° |
| 2026-05-06 05:00 | 23.12834 | 61.74110 | 36194 ft | 399 kts | 95° |
| 2026-05-06 05:01 | 23.12291 | 61.80111 | 36169 ft | 399 kts | 96° |
| 2026-05-06 05:01 | 23.11753 | 61.86079 | 36169 ft | 398 kts | 96° |
| 2026-05-06 05:02 | 23.11213 | 61.92052 | 36159 ft | 398 kts | 96° |
| 2026-05-06 05:02 | 23.10674 | 61.98027 | 36134 ft | 399 kts | 95° |
| 2026-05-06 05:03 | 23.10134 | 62.04012 | 36117 ft | 399 kts | 95° |
| 2026-05-06 05:03 | 23.09720 | 62.10019 | 36078 ft | 399 kts | 89° |
| 2026-05-06 05:04 | 23.10361 | 62.16020 | 35912 ft | 402 kts | 69° |
| 2026-05-06 05:04 | 23.11448 | 62.18811 | 35792 ft | 402 kts | 54° |
| 2026-05-06 05:04 | 23.13146 | 62.21150 | 35606 ft | 400 kts | 36° |
| 2026-05-06 05:04 | 23.15495 | 62.22778 | 35374 ft | 396 kts | 13° |
| 2026-05-06 05:05 | 23.18145 | 62.23238 | 35096 ft | 389 kts | 347° |
| 2026-05-06 05:05 | 23.20676 | 62.22353 | 34859 ft | 382 kts | 320° |
| 2026-05-06 05:05 | 23.22487 | 62.20316 | 34796 ft | 375 kts | 293° |
| 2026-05-06 05:05 | 23.23171 | 62.17636 | 34843 ft | 370 kts | 267° |
| 2026-05-06 05:06 | 23.22596 | 62.14922 | 34909 ft | 371 kts | 240° |
| 2026-05-06 05:06 | 23.20905 | 62.12806 | 34894 ft | 380 kts | 214° |
| 2026-05-06 05:06 | 23.18430 | 62.11733 | 34814 ft | 393 kts | 188° |
| 2026-05-06 05:06 | 23.15706 | 62.11976 | 34705 ft | 408 kts | 161° |
| 2026-05-06 05:07 | 23.13246 | 62.13544 | 34648 ft | 418 kts | 135° |
| 2026-05-06 05:07 | 23.11602 | 62.16160 | 34620 ft | 423 kts | 108° |
| 2026-05-06 05:07 | 23.11125 | 62.19291 | 34620 ft | 422 kts | 81° |
| 2026-05-06 05:07 | 23.11898 | 62.22331 | 34598 ft | 416 kts | 55° |
| 2026-05-06 05:08 | 23.13747 | 62.24676 | 34553 ft | 406 kts | 28° |
| 2026-05-06 05:08 | 23.16279 | 62.25881 | 34484 ft | 394 kts | 1° |
| 2026-05-06 05:08 | 23.18940 | 62.25731 | 34443 ft | 381 kts | 335° |
| 2026-05-06 05:08 | 23.21168 | 62.24301 | 34418 ft | 370 kts | 308° |
| 2026-05-06 05:09 | 23.22459 | 62.21982 | 34396 ft | 364 kts | 282° |
| 2026-05-06 05:09 | 23.22570 | 62.19259 | 34357 ft | 365 kts | 255° |
| 2026-05-06 05:09 | 23.21941 | 62.17529 | 34330 ft | 369 kts | 237° |
| 2026-05-06 05:09 | 23.19329 | 62.15138 | 34274 ft | 384 kts | 201° |
| 2026-05-06 05:10 | 23.18460 | 62.14844 | 34265 ft | 389 kts | 192° |
| 2026-05-06 05:10 | 23.14009 | 62.15650 | 34212 ft | 409 kts | 147° |
| 2026-05-06 05:10 | 23.11944 | 62.17788 | 34191 ft | 417 kts | 121° |
| 2026-05-06 05:10 | 23.10895 | 62.20722 | 34154 ft | 420 kts | 94° |
| 2026-05-06 05:11 | 23.11088 | 62.23859 | 34123 ft | 417 kts | 67° |
| 2026-05-06 05:11 | 23.12472 | 62.26569 | 34085 ft | 409 kts | 40° |
| 2026-05-06 05:11 | 23.14740 | 62.28313 | 34048 ft | 396 kts | 13° |
| 2026-05-06 05:11 | 23.17359 | 62.28765 | 34024 ft | 382 kts | 347° |
| 2026-05-06 05:12 | 23.19823 | 62.27886 | 34006 ft | 370 kts | 320° |
| 2026-05-06 05:12 | 23.21555 | 62.25899 | 33984 ft | 362 kts | 292° |
| 2026-05-06 05:12 | 23.22173 | 62.23294 | 33959 ft | 360 kts | 266° |
| 2026-05-06 05:12 | 23.21541 | 62.20665 | 33916 ft | 366 kts | 239° |
| 2026-05-06 05:13 | 23.19786 | 62.18646 | 33879 ft | 377 kts | 212° |
| 2026-05-06 05:13 | 23.17280 | 62.17721 | 33854 ft | 390 kts | 185° |
| 2026-05-06 05:13 | 23.14565 | 62.18144 | 33831 ft | 403 kts | 158° |
| 2026-05-06 05:13 | 23.12242 | 62.19860 | 33804 ft | 412 kts | 130° |
| 2026-05-06 05:14 | 23.10794 | 62.22544 | 33784 ft | 417 kts | 103° |
| 2026-05-06 05:14 | 23.10529 | 62.25611 | 33748 ft | 416 kts | 77° |
| 2026-05-06 05:14 | 23.11490 | 62.28520 | 33707 ft | 409 kts | 50° |
| 2026-05-06 05:14 | 23.13477 | 62.30645 | 33690 ft | 397 kts | 22° |
| 2026-05-06 05:15 | 23.16037 | 62.31557 | 33674 ft | 383 kts | 355° |
| 2026-05-06 05:15 | 23.18597 | 62.31109 | 33647 ft | 370 kts | 328° |
| 2026-05-06 05:15 | 23.20594 | 62.29447 | 33627 ft | 360 kts | 301° |
| 2026-05-06 05:15 | 23.21575 | 62.26987 | 33605 ft | 357 kts | 274° |
| 2026-05-06 05:16 | 23.21318 | 62.24317 | 33584 ft | 361 kts | 247° |
| 2026-05-06 05:16 | 23.19875 | 62.22081 | 33563 ft | 371 kts | 220° |
| 2026-05-06 05:16 | 23.17548 | 62.20809 | 33525 ft | 384 kts | 192° |
| 2026-05-06 05:16 | 23.14858 | 62.20840 | 33510 ft | 397 kts | 165° |
| 2026-05-06 05:17 | 23.12411 | 62.22185 | 33490 ft | 407 kts | 138° |
| 2026-05-06 05:17 | 23.10681 | 62.24626 | 33463 ft | 413 kts | 111° |
| 2026-05-06 05:17 | 23.10080 | 62.27654 | 33442 ft | 413 kts | 84° |
| 2026-05-06 05:17 | 23.10732 | 62.30657 | 33424 ft | 407 kts | 56° |
| 2026-05-06 05:18 | 23.12500 | 62.33014 | 33413 ft | 396 kts | 29° |
| 2026-05-06 05:18 | 23.14916 | 62.34210 | 33397 ft | 383 kts | 2° |
| 2026-05-06 05:18 | 23.17500 | 62.34083 | 33379 ft | 370 kts | 335° |
| 2026-05-06 05:18 | 23.19661 | 62.32678 | 33348 ft | 360 kts | 307° |
| 2026-05-06 05:19 | 23.20891 | 62.30344 | 33334 ft | 355 kts | 280° |
| 2026-05-06 05:19 | 23.20900 | 62.27699 | 33314 ft | 358 kts | 252° |
| 2026-05-06 05:19 | 23.19693 | 62.25332 | 33297 ft | 367 kts | 225° |
| 2026-05-06 05:19 | 23.17525 | 62.23830 | 33266 ft | 380 kts | 198° |
| 2026-05-06 05:20 | 23.14864 | 62.23580 | 33259 ft | 393 kts | 171° |
| 2026-05-06 05:20 | 23.12288 | 62.24618 | 33338 ft | 401 kts | 146° |
| 2026-05-06 05:20 | 23.10283 | 62.26715 | 33444 ft | 405 kts | 122° |
| 2026-05-06 05:20 | 23.09185 | 62.29523 | 33486 ft | 407 kts | 97° |
| 2026-05-06 05:21 | 23.09184 | 62.32572 | 33440 ft | 406 kts | 72° |
| 2026-05-06 05:21 | 23.10261 | 62.35316 | 33365 ft | 400 kts | 48° |
| 2026-05-06 05:21 | 23.12276 | 62.37372 | 33356 ft | 389 kts | 22° |
| 2026-05-06 05:21 | 23.14747 | 62.38293 | 33388 ft | 376 kts | 358° |
| 2026-05-06 05:22 | 23.17296 | 62.38008 | 33411 ft | 364 kts | 333° |
| 2026-05-06 05:22 | 23.19404 | 62.36593 | 33412 ft | 355 kts | 308° |
| 2026-05-06 05:22 | 23.20683 | 62.34353 | 33398 ft | 351 kts | 283° |
| 2026-05-06 05:22 | 23.20948 | 62.32624 | 33390 ft | 351 kts | 267° |
| 2026-05-06 05:23 | 23.20404 | 62.30043 | 33371 ft | 356 kts | 242° |
| 2026-05-06 05:23 | 23.18817 | 62.27947 | 33358 ft | 366 kts | 217° |
| 2026-05-06 05:23 | 23.13831 | 62.26783 | 33369 ft | 390 kts | 167° |
| 2026-05-06 05:24 | 23.11338 | 62.28003 | 33380 ft | 400 kts | 142° |
| 2026-05-06 05:24 | 23.09464 | 62.30251 | 33374 ft | 407 kts | 117° |
| 2026-05-06 05:24 | 23.08551 | 62.33144 | 33380 ft | 408 kts | 92° |
| 2026-05-06 05:24 | 23.08758 | 62.36188 | 33370 ft | 405 kts | 68° |
| 2026-05-06 05:25 | 23.10039 | 62.38857 | 33365 ft | 397 kts | 43° |
| 2026-05-06 05:25 | 23.12116 | 62.40678 | 33373 ft | 386 kts | 18° |
| 2026-05-06 05:25 | 23.14657 | 62.41401 | 33366 ft | 373 kts | 353° |
| 2026-05-06 05:25 | 23.17149 | 62.40899 | 33361 ft | 362 kts | 328° |
| 2026-05-06 05:26 | 23.19132 | 62.39304 | 33364 ft | 353 kts | 304° |
| 2026-05-06 05:26 | 23.19615 | 62.38575 | 33359 ft | 352 kts | 295° |